createdAt,value
2023-05-19T08:17:45.023Z,16.08
2023-05-19T08:20:14.985Z,16.11
2023-05-19T08:22:44.301Z,16.18
2023-05-19T08:25:14.008Z,16.22
2023-05-19T08:27:43.343Z,16.23
2023-05-19T08:30:13.584Z,16.29
2023-05-19T08:32:42.843Z,16.30
2023-05-19T08:35:14.024Z,16.36
2023-05-19T08:37:43.357Z,16.37
2023-05-19T08:40:13.798Z,16.39
2023-05-19T08:42:43.109Z,16.43
2023-05-19T08:45:12.767Z,16.44
2023-05-19T08:47:43.033Z,16.49
2023-05-19T08:50:14.858Z,16.54
2023-05-19T08:52:49.511Z,16.57
2023-05-19T08:55:26.111Z,16.61
2023-05-19T08:57:55.272Z,16.63
2023-05-19T09:00:24.789Z,16.64
2023-05-19T09:03:00.957Z,16.72
2023-05-19T09:05:42.305Z,16.76
2023-05-19T09:08:11.571Z,16.82
2023-05-19T09:10:41.153Z,16.89
2023-05-19T09:13:10.308Z,16.91
2023-05-19T09:15:40.075Z,16.97
2023-05-19T09:18:09.811Z,17.01
2023-05-19T09:20:40.241Z,17.04
2023-05-19T09:23:13.919Z,17.05
2023-05-19T09:25:49.790Z,17.05
2023-05-19T09:28:24.595Z,17.10
2023-05-19T09:31:00.841Z,17.08
2023-05-19T09:33:30.178Z,17.11
2023-05-19T09:35:59.697Z,17.08
2023-05-19T09:38:30.349Z,17.15
2023-05-19T09:41:00.970Z,17.14
2023-05-19T09:43:30.439Z,17.09
2023-05-19T09:46:04.120Z,17.06
2023-05-19T09:48:33.372Z,17.06
2023-05-19T09:51:02.968Z,17.01
2023-05-19T09:53:34.139Z,17.01
2023-05-19T09:56:04.188Z,16.97
2023-05-19T09:58:34.832Z,16.96
2023-05-19T10:01:04.758Z,16.94
2023-05-19T10:03:34.113Z,16.97
2023-05-19T10:06:04.124Z,16.94
2023-05-19T10:08:36.111Z,16.95
2023-05-19T10:11:07.113Z,16.97
2023-05-19T10:13:36.472Z,16.95
2023-05-19T10:16:06.311Z,16.93
2023-05-19T10:18:36.815Z,16.93
2023-05-19T10:21:07.497Z,16.93
2023-05-19T10:23:38.150Z,16.92
2023-05-19T10:26:07.860Z,16.90
2023-05-19T10:28:39.782Z,16.85
2023-05-19T10:31:09.915Z,16.82
2023-05-19T10:33:41.484Z,16.77
2023-05-19T10:36:14.955Z,16.71
2023-05-19T10:38:48.445Z,16.69
2023-05-19T10:41:19.521Z,16.65
2023-05-19T10:43:53.690Z,16.60
2023-05-19T10:46:25.135Z,16.52
2023-05-19T10:48:54.601Z,16.47
2023-05-19T10:51:29.964Z,16.40
2023-05-19T10:54:02.620Z,16.39
2023-05-19T10:56:34.365Z,16.33
2023-05-19T10:59:03.770Z,16.26
2023-05-19T11:01:33.792Z,16.25
2023-05-19T11:04:06.572Z,16.11
2023-05-19T11:06:37.949Z,16.11
2023-05-19T11:09:17.967Z,16.09
2023-05-19T11:11:48.682Z,16.06
2023-05-19T11:14:18.825Z,16.06
2023-05-19T11:16:48.757Z,16.07
2023-05-19T11:19:21.532Z,16.04
2023-05-19T11:21:52.576Z,15.96
2023-05-19T11:24:42.313Z,15.96
2023-05-19T11:27:27.810Z,15.94
2023-05-19T11:29:57.467Z,15.93
2023-05-19T11:32:27.854Z,15.91
2023-05-19T11:34:57.291Z,15.94
2023-05-19T11:37:26.962Z,15.94
2023-05-19T11:39:57.618Z,15.96
2023-05-19T11:42:27.142Z,16.01
2023-05-19T11:44:56.588Z,16.06
2023-05-19T11:47:26.239Z,16.08
2023-05-19T11:49:56.784Z,16.14
2023-05-19T11:52:27.541Z,16.17
2023-05-19T11:54:58.573Z,16.23
2023-05-19T11:57:28.182Z,16.31
2023-05-19T11:59:57.852Z,16.36
2023-05-19T12:02:28.084Z,16.43
2023-05-19T12:04:57.475Z,16.46
2023-05-19T12:07:27.076Z,16.52
2023-05-19T12:09:56.359Z,16.56
2023-05-19T12:12:27.392Z,16.55
2023-05-19T12:14:57.232Z,16.60
2023-05-19T12:17:26.826Z,16.66
2023-05-19T12:19:56.052Z,16.68
2023-05-19T12:22:25.572Z,16.72
2023-05-19T12:24:54.834Z,16.72
2023-05-19T12:27:26.414Z,16.76
2023-05-19T12:29:57.595Z,16.78
2023-05-19T12:32:27.341Z,16.81
2023-05-19T12:34:57.371Z,16.80
2023-05-19T12:37:27.829Z,16.86
2023-05-19T12:39:57.513Z,16.87
2023-05-19T12:42:31.297Z,16.90
2023-05-19T12:45:03.326Z,16.94
2023-05-19T12:47:35.028Z,16.97
2023-05-19T12:50:05.043Z,16.99
2023-05-19T12:52:35.727Z,16.98
2023-05-19T12:55:07.140Z,17.00
2023-05-19T12:57:37.288Z,17.02
2023-05-19T13:00:10.721Z,17.04
2023-05-19T13:02:55.403Z,17.03
2023-05-19T13:05:24.932Z,17.03
2023-05-19T13:07:55.599Z,17.00
2023-05-19T13:10:27.138Z,16.95
2023-05-19T13:12:57.059Z,16.95
2023-05-19T13:15:28.360Z,16.94
2023-05-19T13:17:58.185Z,16.94
2023-05-19T13:20:28.504Z,16.89
2023-05-19T13:23:02.179Z,16.88
2023-05-19T13:25:31.526Z,16.82
2023-05-19T13:28:01.642Z,16.83
2023-05-19T13:30:32.604Z,16.82
2023-05-19T13:33:02.427Z,16.83
2023-05-19T13:35:37.161Z,16.82
2023-05-19T13:38:08.144Z,16.79
2023-05-19T13:40:37.746Z,16.80
2023-05-19T13:43:08.164Z,16.78
2023-05-19T13:45:39.397Z,16.78
2023-05-19T13:48:09.530Z,16.81
2023-05-19T13:50:38.980Z,16.77
2023-05-19T13:53:08.720Z,16.76
2023-05-19T13:55:38.450Z,16.72
2023-05-19T13:58:11.158Z,16.71
2023-05-19T14:00:42.126Z,16.68
2023-05-19T14:03:11.820Z,16.61
2023-05-19T14:05:41.210Z,16.59
2023-05-19T14:08:11.545Z,16.57
2023-05-19T14:10:42.418Z,16.57
2023-05-19T14:13:31.560Z,16.58
2023-05-19T14:16:03.621Z,16.55
2023-05-19T14:18:33.437Z,16.50
2023-05-19T14:21:02.842Z,16.49
2023-05-19T14:23:33.450Z,16.48
2023-05-19T14:26:03.898Z,16.44
2023-05-19T14:28:33.633Z,16.41
2023-05-19T14:31:04.410Z,16.43
2023-05-19T14:33:35.608Z,16.40
2023-05-19T14:36:05.562Z,16.36
2023-05-19T14:38:35.171Z,16.29
2023-05-19T14:41:04.535Z,16.31
2023-05-19T14:43:34.098Z,16.29
2023-05-19T14:46:04.719Z,16.26
2023-05-19T14:48:34.304Z,16.21
2023-05-19T14:51:03.513Z,16.15
2023-05-19T14:53:33.062Z,16.12
2023-05-19T14:56:02.178Z,16.03
2023-05-19T14:58:31.818Z,15.93
2023-05-19T15:01:01.114Z,15.93
2023-05-19T15:03:32.066Z,15.85
2023-05-19T15:06:01.428Z,15.83
2023-05-19T15:08:30.907Z,15.79
2023-05-19T15:11:00.110Z,15.74
2023-05-19T15:13:30.015Z,15.69
2023-05-19T15:16:12.510Z,15.65
2023-05-19T15:18:47.682Z,15.62
2023-05-19T15:21:16.824Z,15.60
2023-05-19T15:23:46.305Z,15.55
2023-05-19T15:26:15.752Z,15.54
2023-05-19T15:28:45.499Z,15.55
2023-05-19T15:31:14.665Z,15.57
2023-05-19T15:33:44.334Z,15.57
2023-05-19T15:36:16.782Z,15.59
2023-05-19T15:38:46.320Z,15.58
2023-05-19T15:41:15.440Z,15.57
2023-05-19T15:43:46.538Z,15.55
2023-05-19T15:46:16.241Z,15.57
2023-05-19T15:48:45.818Z,15.53
2023-05-19T15:51:16.450Z,15.52
2023-05-19T15:53:46.036Z,15.49
2023-05-19T15:56:15.528Z,15.48
2023-05-19T15:58:45.005Z,15.49
2023-05-19T16:01:14.155Z,15.46
2023-05-19T16:03:44.196Z,15.42
2023-05-19T16:06:13.518Z,15.38
2023-05-19T16:08:44.545Z,15.35
2023-05-19T16:11:14.611Z,15.30
2023-05-19T16:13:44.220Z,15.26
2023-05-19T16:16:13.382Z,15.24
2023-05-19T16:18:44.349Z,15.18
2023-05-19T16:21:13.611Z,15.15
2023-05-19T16:23:44.547Z,15.10
2023-05-19T16:26:13.636Z,15.05
2023-05-19T16:28:43.314Z,15.01
2023-05-19T16:31:12.478Z,14.99
2023-05-19T16:33:42.632Z,14.98
2023-05-19T16:36:11.766Z,14.95
2023-05-19T16:38:41.305Z,14.97
2023-05-19T16:41:13.924Z,14.94
2023-05-19T16:43:43.525Z,14.95
2023-05-19T16:46:14.048Z,14.94
2023-05-19T16:48:43.575Z,14.88
2023-05-19T16:51:12.715Z,14.90
2023-05-19T16:53:42.272Z,14.91
2023-05-19T16:56:11.523Z,14.88
2023-05-19T16:58:42.572Z,14.90
2023-05-19T17:01:12.205Z,14.88
2023-05-19T17:03:41.854Z,14.87
2023-05-19T17:06:11.057Z,14.85
2023-05-19T17:08:40.592Z,14.82
2023-05-19T17:11:09.899Z,14.82
2023-05-19T17:13:39.472Z,14.82
2023-05-19T17:16:10.110Z,14.80
2023-05-19T17:18:39.631Z,14.81
2023-05-19T17:21:08.902Z,14.82
2023-05-19T17:23:38.405Z,14.83
2023-05-19T17:26:07.581Z,14.82
2023-05-19T17:28:37.101Z,14.81
2023-05-19T17:31:12.461Z,14.81
2023-05-19T17:33:41.979Z,14.81
2023-05-19T17:36:11.180Z,14.80
2023-05-19T17:38:42.082Z,14.78
2023-05-19T17:41:11.288Z,14.81
2023-05-19T17:43:41.118Z,14.76
2023-05-19T17:46:11.913Z,14.74
2023-05-19T17:48:41.456Z,14.73
2023-05-19T17:51:11.470Z,14.71
2023-05-19T17:53:41.486Z,14.67
2023-05-19T17:56:12.098Z,14.60
2023-05-19T17:58:41.932Z,14.58
2023-05-19T18:01:12.824Z,14.57
2023-05-19T18:03:43.676Z,14.56
2023-05-19T18:06:13.066Z,14.55
2023-05-19T18:08:43.450Z,14.55
2023-05-19T18:11:16.013Z,14.53
2023-05-19T18:13:45.763Z,14.51
2023-05-19T18:16:16.451Z,14.50
2023-05-19T18:18:50.558Z,14.50
2023-05-19T18:21:20.060Z,14.47
2023-05-19T18:23:49.630Z,14.46
2023-05-19T18:26:18.849Z,14.47
2023-05-19T18:28:48.406Z,14.43
2023-05-19T18:31:20.095Z,14.39
2023-05-19T18:33:50.204Z,14.39
2023-05-19T18:36:19.390Z,14.36
2023-05-19T18:38:48.916Z,14.38
2023-05-19T18:41:18.544Z,14.38
2023-05-19T18:43:48.004Z,14.34
2023-05-19T18:46:19.960Z,14.34
2023-05-19T18:48:50.835Z,14.31
2023-05-19T18:51:21.506Z,14.30
2023-05-19T18:53:51.090Z,14.30
2023-05-19T18:56:26.533Z,14.26
2023-05-19T18:58:56.338Z,14.23
2023-05-19T19:01:27.060Z,14.25
2023-05-19T19:03:56.655Z,14.22
2023-05-19T19:06:25.874Z,14.19
2023-05-19T19:08:55.419Z,14.17
2023-05-19T19:11:24.589Z,14.17
2023-05-19T19:13:55.661Z,14.13
2023-05-19T19:16:26.345Z,14.12
2023-05-19T19:18:56.005Z,14.12
2023-05-19T19:21:25.913Z,14.11
2023-05-19T19:23:55.884Z,14.09
2023-05-19T19:26:26.972Z,14.07
2023-05-19T19:28:56.559Z,14.06
2023-05-19T19:31:28.869Z,14.04
2023-05-19T19:34:03.140Z,14.01
2023-05-19T19:36:32.297Z,13.99
2023-05-19T19:39:01.907Z,13.97
2023-05-19T19:41:31.116Z,13.96
2023-05-19T19:44:00.573Z,13.95
2023-05-19T19:46:31.221Z,13.93
2023-05-19T19:49:01.283Z,13.92
2023-05-19T19:51:31.691Z,13.91
2023-05-19T19:54:01.293Z,13.89
2023-05-19T19:56:30.571Z,13.85
2023-05-19T19:59:00.345Z,13.82
2023-05-19T20:01:31.029Z,13.84
2023-05-19T20:04:01.004Z,13.85
2023-05-19T20:06:31.002Z,13.85
2023-05-19T20:09:00.546Z,13.85
2023-05-19T20:11:29.761Z,13.82
2023-05-19T20:13:59.361Z,13.83
2023-05-19T20:16:28.597Z,13.86
2023-05-19T20:18:59.738Z,13.85
2023-05-19T20:21:29.007Z,13.89
2023-05-19T20:23:58.644Z,13.86
2023-05-19T20:26:29.271Z,13.85
2023-05-19T20:28:59.107Z,13.86
2023-05-19T20:31:28.290Z,13.83
2023-05-19T20:33:59.370Z,13.84
2023-05-19T20:36:32.099Z,13.84
2023-05-19T20:39:01.586Z,13.86
2023-05-19T20:41:30.814Z,13.85
2023-05-19T20:44:00.356Z,13.85
2023-05-19T20:46:29.719Z,13.85
2023-05-19T20:48:59.300Z,13.85
2023-05-19T20:51:28.504Z,13.84
2023-05-19T20:54:00.135Z,13.82
2023-05-19T20:56:29.546Z,13.81
2023-05-19T20:58:59.078Z,13.82
2023-05-19T21:01:29.988Z,13.84
2023-05-19T21:03:59.663Z,13.82
2023-05-19T21:06:28.848Z,13.83
2023-05-19T21:09:03.639Z,13.80
2023-05-19T21:11:32.806Z,13.81
2023-05-19T21:14:04.201Z,13.81
2023-05-19T21:16:34.168Z,13.78
2023-05-19T21:19:03.945Z,13.78
2023-05-19T21:21:33.609Z,13.78
2023-05-19T21:24:04.610Z,13.75
2023-05-19T21:26:33.779Z,13.75
2023-05-19T21:29:03.245Z,13.76
2023-05-19T21:31:32.492Z,13.73
2023-05-19T21:34:02.025Z,13.74
